Torm Republican — OYNE2 — position and weather

sailwx.info

Track history (hours):
 
Tides and Currents Weather Stations Pressure Air Temp Water Temp Dewpoint Dewpoint Depression Visibility Wind Speed Wind Dir Waves Ship Positions

Torm Republican

Last reported at 2015-Jan-25 22:23 UTC. Time now 2015-Jan-26 02:28 UTC.
Position N 50°14' W 001°24'.

Length 183 m; draft 10.5 m.

Type: Ship (hazmat cat A). MMSI: 220560000.

Date/timePositionNaut miles runAvg speedWind from/ knotsBaromVisibWave heightAir tempDewpointWater temp
2015-Jan-25 22:23N 50°14' W 001°24'2412.8
2015-Jan-25 20:32N 50°21' W 000°49'1615.1
2015-Jan-25 19:28N 50°25' W 000°25'1415.1
2015-Jan-25 18:34N 50°30' W 000°04'1514.7
2015-Jan-25 17:34N 50°33' E 000°18'1413.9
2015-Jan-25 16:33N 50°38' E 000°39'1312.8
2015-Jan-25 15:33N 50°46' E 000°54'1211.7
2015-Jan-25 14:32N 50°54' E 001°09'1211.9
2015-Jan-25 13:34N 51°02' E 001°22'1414.1
2015-Jan-25 12:33N 51°11' E 001°39'1615.9
2015-Jan-25 11:33N 51°24' E 001°54'1615.6
2015-Jan-25 10:33N 51°36' E 002°10'1714.6
2015-Jan-25 09:24N 51°48' E 002°29'2912.7
2015-Jan-25 07:05N 52°16' E 002°41'611.9
2015-Jan-25 06:33N 52°22' E 002°45'41311.4
2015-Jan-23 18:22N 57°48' E 010°10'1113.5
2015-Jan-23 17:33N 57°47' E 010°31'10 9.6
2015-Jan-23 16:32N 57°45' E 010°49'0 0.5
2015-Jan-23 15:31N 57°45' E 010°48'8 8.3
2015-Jan-23 14:33N 57°38' E 010°39'0 0.1
2015-Jan-23 12:14N 57°39' E 010°39'0 0.0
2015-Jan-23 11:32N 57°39' E 010°39'0 0.0
2015-Jan-23 10:29N 57°39' E 010°39'0 0.1
2015-Jan-23 09:20N 57°38' E 010°39'2 3.1
2015-Jan-23 08:33N 57°38' E 010°43'1313.2
2015-Jan-23 07:33N 57°33' E 011°06'1313.3
2015-Jan-23 06:33N 57°26' E 011°27'1414.1
2015-Jan-23 05:34N 57°13' E 011°36'1413.9
2015-Jan-23 04:33N 56°60' E 011°45'1413.8
2015-Jan-23 03:33N 56°47' E 011°54'1312.7
2015-Jan-23 02:33N 56°35' E 011°45'11812.9
2015-Jan-22 17:25N 54°42' E 010°47'1113.0
2015-Jan-22 16:33N 54°36' E 011°03'1413.7
2015-Jan-22 15:33N 54°32' E 011°25'1413.9
2015-Jan-22 14:33N 54°27' E 011°47'1313.4
2015-Jan-22 13:33N 54°27' E 012°10'1313.2
2015-Jan-22 12:33N 54°38' E 012°22'1313.2
2015-Jan-22 11:33N 54°46' E 012°40'1313.0
2015-Jan-22 10:32N 54°52' E 013°01'1613.1
2015-Jan-22 09:19N 54°57' E 013°27'1013.3
2015-Jan-22 08:33N 55°00' E 013°44'1312.8
2015-Jan-22 07:33N 55°05' E 014°05'1312.9
2015-Jan-22 06:34N 55°11' E 014°25'1312.8
2015-Jan-22 05:33N 55°19' E 014°43'9 9.4
2015-Jan-22 04:33N 55°24' E 014°56'1211.6
2015-Jan-22 03:33N 55°35' E 015°05'1211.7
2015-Jan-22 02:33N 55°40' E 015°24'34212.0
2015-Jan-20 22:05N 59°30' E 023°15'713.7
2015-Jan-20 21:33N 59°29' E 023°29'  
Track history (hours):
 
Tides and Currents Weather Stations Pressure Air Temp Water Temp Dewpoint Dewpoint Depression Visibility Wind Speed Wind Dir Waves Ship Positions

Torm Republican

Last reported at 2015-Jan-25 22:23 UTC. Time now 2015-Jan-26 02:28 UTC.
Position N 50°14' W 001°24'.

Length 183 m; draft 10.5 m.

Type: Ship (hazmat cat A). MMSI: 220560000.

Date/timePositionNaut miles runAvg speedWind from/ knotsBaromVisibWave heightAir tempDewpointWater temp
2015-Jan-25 22:23N 50°14' W 001°24'2412.8
2015-Jan-25 20:32N 50°21' W 000°49'1615.1
2015-Jan-25 19:28N 50°25' W 000°25'1415.1
2015-Jan-25 18:34N 50°30' W 000°04'1514.7
2015-Jan-25 17:34N 50°33' E 000°18'1413.9
2015-Jan-25 16:33N 50°38' E 000°39'1312.8
2015-Jan-25 15:33N 50°46' E 000°54'1211.7
2015-Jan-25 14:32N 50°54' E 001°09'1211.9
2015-Jan-25 13:34N 51°02' E 001°22'1414.1
2015-Jan-25 12:33N 51°11' E 001°39'1615.9
2015-Jan-25 11:33N 51°24' E 001°54'1615.6
2015-Jan-25 10:33N 51°36' E 002°10'1714.6
2015-Jan-25 09:24N 51°48' E 002°29'2912.7
2015-Jan-25 07:05N 52°16' E 002°41'611.9
2015-Jan-25 06:33N 52°22' E 002°45'41311.4
2015-Jan-23 18:22N 57°48' E 010°10'1113.5
2015-Jan-23 17:33N 57°47' E 010°31'10 9.6
2015-Jan-23 16:32N 57°45' E 010°49'0 0.5
2015-Jan-23 15:31N 57°45' E 010°48'8 8.3
2015-Jan-23 14:33N 57°38' E 010°39'0 0.1
2015-Jan-23 12:14N 57°39' E 010°39'0 0.0
2015-Jan-23 11:32N 57°39' E 010°39'0 0.0
2015-Jan-23 10:29N 57°39' E 010°39'0 0.1
2015-Jan-23 09:20N 57°38' E 010°39'2 3.1
2015-Jan-23 08:33N 57°38' E 010°43'1313.2
2015-Jan-23 07:33N 57°33' E 011°06'1313.3
2015-Jan-23 06:33N 57°26' E 011°27'1414.1
2015-Jan-23 05:34N 57°13' E 011°36'1413.9
2015-Jan-23 04:33N 56°60' E 011°45'1413.8
2015-Jan-23 03:33N 56°47' E 011°54'1312.7
2015-Jan-23 02:33N 56°35' E 011°45'11812.9
2015-Jan-22 17:25N 54°42' E 010°47'1113.0
2015-Jan-22 16:33N 54°36' E 011°03'1413.7
2015-Jan-22 15:33N 54°32' E 011°25'1413.9
2015-Jan-22 14:33N 54°27' E 011°47'1313.4
2015-Jan-22 13:33N 54°27' E 012°10'1313.2
2015-Jan-22 12:33N 54°38' E 012°22'1313.2
2015-Jan-22 11:33N 54°46' E 012°40'1313.0
2015-Jan-22 10:32N 54°52' E 013°01'1613.1
2015-Jan-22 09:19N 54°57' E 013°27'1013.3
2015-Jan-22 08:33N 55°00' E 013°44'1312.8
2015-Jan-22 07:33N 55°05' E 014°05'1312.9
2015-Jan-22 06:34N 55°11' E 014°25'1312.8
2015-Jan-22 05:33N 55°19' E 014°43'9 9.4
2015-Jan-22 04:33N 55°24' E 014°56'1211.6
2015-Jan-22 03:33N 55°35' E 015°05'1211.7
2015-Jan-22 02:33N 55°40' E 015°24'34212.0
2015-Jan-20 22:05N 59°30' E 023°15'713.7
2015-Jan-20 21:33N 59°29' E 023°29'  

Dump ship's entire track history